^^
Saratoga-Weather Station Historical Data
Daily Summary for June 29, 2021 Units:  English    Metric   Both
Daily Weekly Monthly Yearly Custom
  High: Low: Average:
Temperature: 37.9 °F 32.5 °F 35.6 °F
Dew Point: 34.7 °F 30 °F 32.7 °F
Humidity: 93% 85% 89%
Wind Speed: 15mph 0mph 4.7mph
Wind Gust: 16mph - -
Wind- - West
Pressure: 30 in 29.6 in -
Precipitation: 0 in    
Historical Graphs
 
 
Tabular Data for June 29, 2021
Time Temperature Dew Point Pressure Wind Wind Speed Wind Gust Humidity Rainfall Rate (Hourly) solar
00:01 36.3 °F 34 °F 29.6 in WNW 2 mph 3 mph 91% 0 in 0 W/m2
00:06 36.3 °F 34 °F 29.6 in WNW 2 mph 2 mph 91% 0 in 0 W/m2
00:11 36.3 °F 34 °F 29.6 in NW 2 mph 9 mph 91% 0 in 0 W/m2
00:16 36.3 °F 34 °F 29.6 in NW 2 mph 3 mph 91% 0 in 0 W/m2
00:21 36.3 °F 34 °F 29.6 in WNW 2 mph 6 mph 91% 0 in 0 W/m2
00:26 36.3 °F 34 °F 29.6 in WNW 0.9 mph 4 mph 91% 0 in 0 W/m2
00:31 36.3 °F 34 °F 29.6 in West 2.9 mph 7 mph 91% 0 in 0 W/m2
00:36 36.3 °F 34 °F 29.6 in WNW 2.9 mph 6 mph 91% 0 in 0 W/m2
00:41 36.3 °F 34 °F 29.6 in West 2.9 mph 6 mph 91% 0 in 0 W/m2
00:46 36.3 °F 34 °F 29.6 in WNW 2 mph 5 mph 91% 0 in 0 W/m2
00:51 36.1 °F 33.8 °F 29.6 in West 2.9 mph 6 mph 91% 0 in 0 W/m2
00:56 36.1 °F 33.8 °F 29.6 in West 2.9 mph 4 mph 91% 0 in 0 W/m2
01:01 36.1 °F 33.8 °F 29.6 in NW 0.9 mph 6 mph 91% 0 in 0 W/m2
01:11 36 °F 33.6 °F 29.6 in WNW 0.9 mph 1 mph 91% 0 in 0 W/m2
01:16 36 °F 33.6 °F 29.6 in WNW 0.9 mph 2 mph 91% 0 in 0 W/m2
01:21 35.8 °F 33.4 °F 29.6 in WNW 2 mph 3 mph 91% 0 in 0 W/m2
01:26 35.8 °F 33.6 °F 29.6 in WNW 2 mph 2 mph 92% 0 in 0 W/m2
01:31 35.8 °F 33.6 °F 29.6 in West 2 mph 2 mph 92% 0 in 0 W/m2
01:36 35.6 °F 33.4 °F 29.6 in WNW 2.9 mph 4 mph 92% 0 in 0 W/m2
01:41 35.8 °F 33.6 °F 29.6 in WSW 2 mph 4 mph 92% 0 in 0 W/m2
01:46 35.8 °F 33.4 °F 29.6 in West 2 mph 4 mph 91% 0 in 0 W/m2
01:51 35.6 °F 33.3 °F 29.6 in WNW 2.9 mph 3 mph 91% 0 in 0 W/m2
01:56 35.4 °F 33.1 °F 29.6 in WNW 0.9 mph 2 mph 91% 0 in 0 W/m2
02:01 35.4 °F 33.1 °F 29.6 in Calm     91% 0 in 0 W/m2
02:06 35.2 °F 32.9 °F 29.6 in Calm     91% 0 in 0 W/m2
02:12 35.1 °F 32.7 °F 29.6 in Calm     91% 0 in 0 W/m2
02:17 34.5 °F 32.2 °F 29.6 in Calm     91% 0 in 0 W/m2
02:22 34.3 °F 32 °F 29.6 in Calm     91% 0 in 0 W/m2
02:32 33.6 °F 31.5 °F 29.6 in Calm   2 mph 92% 0 in 0 W/m2
02:37 33.6 °F 31.5 °F 29.6 in WNW 0.9 mph 3 mph 92% 0 in 0 W/m2
02:42 33.4 °F 31.3 °F 29.6 in Calm   2 mph 92% 0 in 0 W/m2
02:52 33.1 °F 31.3 °F 29.7 in WSW 0.9 mph 2 mph 93% 0 in 0 W/m2
02:57 32.9 °F 31.1 °F 29.7 in WSW 2 mph 3 mph 93% 0 in 0 W/m2
03:02 32.9 °F 31.1 °F 29.7 in WNW 2.9 mph 3 mph 93% 0 in 0 W/m2
03:07 33.1 °F 31.3 °F 29.7 in West 0.9 mph 3 mph 93% 0 in 0 W/m2
03:12 33.1 °F 31.3 °F 29.7 in Calm   2 mph 93% 0 in 0 W/m2
03:17 32.9 °F 31.1 °F 29.7 in West 0.9 mph 2 mph 93% 0 in 0 W/m2
03:22 32.9 °F 31.1 °F 29.7 in West 2 mph 4 mph 93% 0 in 0 W/m2
03:27 32.9 °F 31.1 °F 29.7 in West 0.9 mph 5 mph 93% 0 in 0 W/m2
03:32 33.1 °F 31.3 °F 29.7 in West 0.9 mph 2 mph 93% 0 in 0 W/m2
03:37 32.9 °F 31.1 °F 29.7 in West 2.9 mph 6 mph 93% 0 in 0 W/m2
03:42 33.1 °F 31.3 °F 29.7 in West 2 mph 3 mph 93% 0 in 0 W/m2
03:47 32.9 °F 30.9 °F 29.7 in West 2.9 mph 3 mph 92% 0 in 0 W/m2
03:52 32.9 °F 30.9 °F 29.7 in NW 2.9 mph 4 mph 92% 0 in 0 W/m2
03:57 32.9 °F 30.9 °F 29.7 in WNW 2 mph 4 mph 92% 0 in 0 W/m2
04:02 32.9 °F 30.9 °F 29.7 in West 2.9 mph 6 mph 92% 0 in 0 W/m2
04:07 33.1 °F 31.1 °F 29.7 in West 4 mph 7 mph 92% 0 in 0 W/m2
04:17 33.3 °F 31.1 °F 29.7 in West 2.9 mph 7 mph 92% 0 in 0 W/m2
04:22 33.3 °F 31.1 °F 29.7 in West 2.9 mph 6 mph 92% 0 in 0 W/m2
04:27 33.4 °F 31.1 °F 29.7 in WNW 2 mph 6 mph 91% 0 in 0 W/m2
04:32 33.4 °F 31.1 °F 29.7 in WNW 2.9 mph 8 mph 91% 0 in 0 W/m2
04:37 33.4 °F 31.1 °F 29.7 in West 2.9 mph 4 mph 91% 0 in 0 W/m2
04:42 33.4 °F 31.1 °F 29.7 in WSW 4.9 mph 8 mph 91% 0 in 0 W/m2
04:47 33.4 °F 31.1 °F 29.7 in WSW 6.9 mph 9 mph 91% 0 in 0 W/m2
04:52 33.4 °F 31.1 °F 29.7 in WNW 6 mph 6 mph 91% 0 in 0 W/m2
04:57 33.4 °F 30.7 °F 29.7 in WNW 4.9 mph 9 mph 90% 0 in 0 W/m2
05:02 33.4 °F 30.7 °F 29.7 in West 6 mph 8 mph 90% 0 in 0 W/m2
05:07 33.4 °F 30.7 °F 29.7 in West 2.9 mph 8 mph 90% 0 in 0 W/m2
05:12 33.4 °F 30.7 °F 29.7 in West 6 mph 7 mph 90% 0 in 0 W/m2
05:17 33.4 °F 30.7 °F 29.7 in WSW 4 mph 12 mph 90% 0 in 0 W/m2
05:22 33.3 °F 30.9 °F 29.7 in West 8.1 mph 8 mph 91% 0 in 0 W/m2
05:27 33.3 °F 30.9 °F 29.7 in WNW 8.1 mph 12 mph 91% 0 in 0 W/m2
05:32 33.3 °F 30.6 °F 29.7 in West 2 mph 6 mph 90% 0 in 0 W/m2
05:37 33.3 °F 30.9 °F 29.7 in West 2.9 mph 4 mph 91% 0 in 0 W/m2
05:47 33.3 °F 30.9 °F 29.7 in WNW 2.9 mph 6 mph 91% 0 in 0 W/m2
05:52 33.1 °F 30.7 °F 29.7 in West 2.9 mph 9 mph 91% 0 in 0 W/m2
05:57 33.1 °F 30.4 °F 29.7 in WNW 6.9 mph 8 mph 90% 0 in 0 W/m2
06:02 33.1 °F 30.4 °F 29.7 in WNW 2 mph 4 mph 90% 0 in 0 W/m2
06:07 33.1 °F 30.4 °F 29.7 in West 2.9 mph 9 mph 90% 0 in 0 W/m2
06:12 33.1 °F 30.4 °F 29.7 in West 4 mph 7 mph 90% 0 in 0 W/m2
06:17 33.3 °F 30.6 °F 29.7 in West 2.9 mph 8 mph 90% 0 in 0 W/m2
06:22 33.3 °F 30.6 °F 29.7 in WNW 4.9 mph 7 mph 90% 0 in 0 W/m2
06:27 33.3 °F 30.6 °F 29.7 in West 6 mph 9 mph 90% 0 in 0 W/m2
06:32 33.3 °F 30.6 °F 29.7 in WNW 2.9 mph 8 mph 90% 0 in 0 W/m2
06:37 33.3 °F 30.6 °F 29.7 in WNW 4 mph 7 mph 90% 0 in 0 W/m2
06:42 33.3 °F 30.6 °F 29.7 in West 6 mph 10 mph 90% 0 in 0 W/m2
06:47 33.1 °F 30.4 °F 29.7 in WNW 6 mph 7 mph 90% 0 in 0 W/m2
06:52 33.1 °F 30.4 °F 29.7 in West 6 mph 9 mph 90% 0 in 0 W/m2
06:57 33.3 °F 30.6 °F 29.7 in WNW 6 mph 8 mph 90% 0 in 0 W/m2
07:02 33.3 °F 30.6 °F 29.7 in West 2.9 mph 6 mph 90% 0 in 0 W/m2
07:07 33.1 °F 30.4 °F 29.7 in WNW 2.9 mph 7 mph 90% 0 in 0 W/m2
07:12 33.1 °F 30.2 °F 29.7 in NW 0.9 mph 4 mph 89% 0 in 0 W/m2
07:17 33.1 °F 30.2 °F 29.7 in Calm   2 mph 89% 0 in 0 W/m2
07:22 32.9 °F 30 °F 29.8 in NNW 2 mph 4 mph 89% 0 in 0 W/m2
07:27 32.7 °F 30.2 °F 29.8 in NW 2 mph 3 mph 90% 0 in 0 W/m2
07:32 32.5 °F 30 °F 29.8 in WNW 2 mph 2 mph 90% 0 in 0 W/m2
07:37 32.5 °F 30 °F 29.8 in WSW 4 mph 4 mph 90% 0 in 0 W/m2
07:42 32.5 °F 30 °F 29.8 in WNW 2 mph 3 mph 90% 0 in 0 W/m2
07:47 32.7 °F 30.4 °F 29.8 in West 4 mph 6 mph 91% 0 in 0 W/m2
07:52 33.1 °F 30.4 °F 29.8 in WNW 2 mph 5 mph 90% 0 in 0 W/m2
07:57 33.3 °F 30.6 °F 29.8 in WNW 4 mph 7 mph 90% 0 in 0 W/m2
08:07 33.4 °F 30.6 °F 29.8 in WNW 4 mph 9 mph 89% 0 in 0 W/m2
08:12 33.4 °F 30.6 °F 29.8 in WNW 4 mph 7 mph 89% 0 in 5 W/m2
08:17 33.4 °F 30.6 °F 29.8 in WNW 2 mph 6 mph 89% 0 in 7 W/m2
08:22 33.4 °F 30.2 °F 29.8 in West 8.1 mph 11 mph 88% 0 in 9 W/m2
08:27 33.4 °F 30.2 °F 29.8 in West 2 mph 8 mph 88% 0 in 11 W/m2
08:32 33.6 °F 30.4 °F 29.8 in WNW 6 mph 11 mph 88% 0 in 12 W/m2
08:37 33.6 °F 30.4 °F 29.8 in WNW 4.9 mph 7 mph 88% 0 in 14 W/m2
08:42 33.6 °F 30.4 °F 29.8 in West 2 mph 5 mph 88% 0 in 14 W/m2
08:47 33.6 °F 30.4 °F 29.8 in West 6 mph 6 mph 88% 0 in 14 W/m2
08:53 33.6 °F 30.4 °F 29.8 in WNW 2.9 mph 8 mph 88% 0 in 18 W/m2
08:58 33.6 °F 30.7 °F 29.8 in NW 2 mph 7 mph 89% 0 in 21 W/m2
09:03 33.6 °F 30.7 °F 29.8 in SW 4.9 mph 6 mph 89% 0 in 25 W/m2
09:08 33.6 °F 30.7 °F 29.8 in West 2 mph 7 mph 89% 0 in 23 W/m2
09:13 33.4 °F 30.6 °F 29.8 in WNW 4 mph 7 mph 89% 0 in 21 W/m2
09:18 33.4 °F 30.7 °F 29.8 in WSW 0.9 mph 7 mph 90% 0 in 25 W/m2
09:23 33.4 °F 30.7 °F 29.8 in WSW 2 mph 8 mph 90% 0 in 25 W/m2
09:28 33.4 °F 30.7 °F 29.8 in SW 4.9 mph 7 mph 90% 0 in 26 W/m2
09:33 33.6 °F 30.9 °F 29.8 in WSW 6 mph 11 mph 90% 0 in 26 W/m2
09:38 33.6 °F 30.9 °F 29.8 in NW 2 mph 6 mph 90% 0 in 28 W/m2
09:43 33.6 °F 30.9 °F 29.8 in West 2 mph 8 mph 90% 0 in 33 W/m2
09:48 33.6 °F 30.9 °F 29.8 in West 2 mph 3 mph 90% 0 in 42 W/m2
09:53 33.8 °F 31.1 °F 29.8 in West 0.9 mph 8 mph 90% 0 in 47 W/m2
09:58 34 °F 31.3 °F 29.8 in West 4 mph 8 mph 90% 0 in 53 W/m2
10:03 34.2 °F 31.5 °F 29.8 in West 8.1 mph 8 mph 90% 0 in 74 W/m2
10:08 34.2 °F 31.5 °F 29.8 in WNW 2 mph 7 mph 90% 0 in 74 W/m2
10:13 34.3 °F 31.6 °F 29.8 in WNW 8.9 mph 10 mph 90% 0 in 44 W/m2
10:18 34.3 °F 31.6 °F 29.8 in NW 0.9 mph 7 mph 90% 0 in 32 W/m2
10:23 34.3 °F 31.6 °F 29.8 in WNW 2.9 mph 4 mph 90% 0 in 32 W/m2
10:28 34.3 °F 31.6 °F 29.8 in WNW 2.9 mph 6 mph 90% 0 in 37 W/m2
10:33 34.3 °F 31.6 °F 29.8 in West 2 mph 6 mph 90% 0 in 33 W/m2
10:38 34.3 °F 31.6 °F 29.8 in WSW 4 mph 8 mph 90% 0 in 42 W/m2
10:43 34.5 °F 31.8 °F 29.8 in West 6.9 mph 9 mph 90% 0 in 42 W/m2
10:48 34.5 °F 31.8 °F 29.8 in West 6 mph 12 mph 90% 0 in 35 W/m2
10:53 34.9 °F 32.2 °F 29.8 in WNW 8.1 mph 9 mph 90% 0 in 37 W/m2
10:58 35.1 °F 32.4 °F 29.8 in West 8.9 mph 12 mph 90% 0 in 37 W/m2
11:03 35.2 °F 32.4 °F 29.8 in WNW 4 mph 8 mph 89% 0 in 39 W/m2
11:08 35.4 °F 32.5 °F 29.8 in West 6.9 mph 11 mph 89% 0 in 37 W/m2
11:13 35.4 °F 32.5 °F 29.8 in West 2.9 mph 8 mph 89% 0 in 35 W/m2
11:18 35.4 °F 32.2 °F 29.8 in WSW 4 mph 14 mph 88% 0 in 39 W/m2
11:23 35.6 °F 32.4 °F 29.8 in West 6 mph 12 mph 88% 0 in 42 W/m2
11:28 35.8 °F 32.5 °F 29.8 in WNW 4 mph 11 mph 88% 0 in 63 W/m2
11:33 35.8 °F 32.5 °F 29.8 in NW 4 mph 12 mph 88% 0 in 74 W/m2
11:38 36 °F 32.7 °F 29.8 in NW 4.9 mph 11 mph 88% 0 in 105 W/m2
11:43 36.1 °F 32.9 °F 29.8 in West 4 mph 8 mph 88% 0 in 139 W/m2
11:48 36.1 °F 32.7 °F 29.8 in West 6 mph 10 mph 87% 0 in 146 W/m2
11:53 36.3 °F 32.9 °F 29.8 in NW 8.1 mph 10 mph 87% 0 in 95 W/m2
11:58 36.3 °F 32.9 °F 29.8 in West 4 mph 12 mph 87% 0 in 113 W/m2
12:03 36.3 °F 32.9 °F 29.8 in WNW 6.9 mph 13 mph 87% 0 in 141 W/m2
12:08 36.5 °F 32.7 °F 29.8 in NW 4 mph 13 mph 86% 0 in 148 W/m2
12:18 36.7 °F 33.3 °F 29.8 in WNW 4.9 mph 11 mph 87% 0 in 146 W/m2
12:23 36.9 °F 33.4 °F 29.8 in West 6.9 mph 12 mph 87% 0 in 142 W/m2
12:28 36.9 °F 33.1 °F 29.8 in WNW 8.9 mph 12 mph 86% 0 in 100 W/m2
12:33 36.7 °F 32.9 °F 29.8 in WNW 6.9 mph 11 mph 86% 0 in 88 W/m2
12:38 36.7 °F 32.9 °F 29.8 in West 4 mph 14 mph 86% 0 in 146 W/m2
12:43 36.7 °F 33.3 °F 29.8 in WNW 4 mph 11 mph 87% 0 in 134 W/m2
12:48 36.9 °F 33.1 °F 29.8 in West 8.1 mph 14 mph 86% 0 in 169 W/m2
12:53 37.2 °F 33.4 °F 29.8 in WSW 12.1 mph 12 mph 86% 0 in 162 W/m2
12:58 37.2 °F 33.1 °F 29.8 in West 8.1 mph 13 mph 85% 0 in 100 W/m2
13:03 37.2 °F 33.1 °F 29.8 in West 2 mph 9 mph 85% 0 in 83 W/m2
13:08 37 °F 32.9 °F 29.9 in WNW 8.1 mph 10 mph 85% 0 in 97 W/m2
13:13 37 °F 33.3 °F 29.9 in West 10.1 mph 11 mph 86% 0 in 93 W/m2
13:18 37 °F 33.3 °F 29.9 in NW 2.9 mph 11 mph 86% 0 in 88 W/m2
13:23 37 °F 33.3 °F 29.9 in NW 8.1 mph 12 mph 86% 0 in 134 W/m2
13:28 37.2 °F 33.4 °F 29.9 in WSW 4.9 mph 11 mph 86% 0 in 151 W/m2
13:33 37.4 °F 33.6 °F 29.9 in WNW 8.9 mph 12 mph 86% 0 in 132 W/m2
13:38 37.6 °F 33.8 °F 29.9 in NW 10.1 mph 11 mph 86% 0 in 111 W/m2
13:43 37.6 °F 33.8 °F 29.9 in WSW 4 mph 12 mph 86% 0 in 132 W/m2
13:48 37.6 °F 33.8 °F 29.9 in WNW 6.9 mph 11 mph 86% 0 in 132 W/m2
13:53 37.6 °F 33.4 °F 29.9 in WNW 6.9 mph 13 mph 85% 0 in 127 W/m2
13:58 37.6 °F 33.4 °F 29.9 in West 8.1 mph 15 mph 85% 0 in 104 W/m2
14:08 37.6 °F 33.4 °F 29.9 in WSW 15 mph 15 mph 85% 0 in 88 W/m2
14:13 37.6 °F 33.4 °F 29.9 in WSW 8.9 mph 11 mph 85% 0 in 69 W/m2
14:18 37.6 °F 33.4 °F 29.9 in WSW 15 mph 15 mph 85% 0 in 49 W/m2
14:23 37.6 °F 33.4 °F 29.9 in WNW 4 mph 10 mph 85% 0 in 53 W/m2
14:28 37.8 °F 33.6 °F 29.9 in NW 4.9 mph 7 mph 85% 0 in 63 W/m2
14:33 37.8 °F 34 °F 29.9 in West 4 mph 9 mph 86% 0 in 70 W/m2
14:38 37.8 °F 33.6 °F 29.9 in West 6 mph 12 mph 85% 0 in 69 W/m2
14:43 37.9 °F 33.8 °F 29.9 in WNW 8.9 mph 10 mph 85% 0 in 74 W/m2
14:48 37.9 °F 33.8 °F 29.9 in West 6 mph 12 mph 85% 0 in 65 W/m2
14:53 37.9 °F 34.2 °F 29.9 in West 8.1 mph 11 mph 86% 0 in 62 W/m2
14:58 37.8 °F 34 °F 29.9 in West 8.9 mph 10 mph 86% 0 in 53 W/m2
15:03 37.8 °F 34 °F 29.9 in West 6 mph 9 mph 86% 0 in 47 W/m2
15:08 37.8 °F 34 °F 29.9 in WNW 6.9 mph 12 mph 86% 0 in 40 W/m2
15:13 37.6 °F 33.8 °F 29.9 in WSW 8.1 mph 14 mph 86% 0 in 47 W/m2
15:18 37.6 °F 33.8 °F 29.9 in West 4 mph 10 mph 86% 0 in 33 W/m2
15:23 37.6 °F 33.8 °F 29.9 in NW 8.1 mph 11 mph 86% 0 in 33 W/m2
15:28 37.6 °F 33.8 °F 29.9 in WNW 4 mph 11 mph 86% 0 in 44 W/m2
15:33 37.6 °F 33.8 °F 29.9 in West 6.9 mph 11 mph 86% 0 in 39 W/m2
15:38 37.4 °F 33.8 °F 29.9 in NW 8.9 mph 9 mph 87% 0 in 39 W/m2
15:43 37.4 °F 33.8 °F 29.9 in West 6 mph 11 mph 87% 0 in 28 W/m2
15:48 37.2 °F 33.8 °F 29.9 in West 2.9 mph 8 mph 87% 0 in 32 W/m2
16:03 37 °F 33.6 °F 29.9 in WNW 4 mph 8 mph 87% 0 in 33 W/m2
16:08 37 °F 33.6 °F 29.9 in WNW 8.1 mph 15 mph 87% 0 in 25 W/m2
16:13 37.2 °F 33.8 °F 29.9 in WSW 6.9 mph 10 mph 87% 0 in 19 W/m2
16:18 37 °F 33.6 °F 29.9 in West 8.9 mph 11 mph 87% 0 in 11 W/m2
16:23 37 °F 33.6 °F 29.9 in West 6.9 mph 8 mph 87% 0 in 7 W/m2
16:28 37 °F 33.6 °F 29.9 in WNW 4.9 mph 10 mph 87% 0 in 5 W/m2
16:33 37 °F 33.6 °F 29.9 in West 6 mph 8 mph 87% 0 in 5 W/m2
16:38 37 °F 33.6 °F 29.9 in WSW 2 mph 8 mph 87% 0 in 5 W/m2
16:48 36.9 °F 33.4 °F 29.9 in WSW 4 mph 9 mph 87% 0 in 0 W/m2
16:53 36.9 °F 33.4 °F 29.9 in WNW 6.9 mph 12 mph 87% 0 in 0 W/m2
16:58 36.7 °F 33.4 °F 29.9 in West 2.9 mph 13 mph 88% 0 in 0 W/m2
17:03 36.7 °F 33.4 °F 29.9 in WNW 4 mph 13 mph 88% 0 in 0 W/m2
17:08 36.5 °F 33.3 °F 29.9 in WNW 2 mph 7 mph 88% 0 in 0 W/m2
17:13 36.5 °F 33.3 °F 29.9 in WNW 2 mph 13 mph 88% 0 in 0 W/m2
17:18 36.3 °F 33.1 °F 29.9 in WNW 6.9 mph 10 mph 88% 0 in 0 W/m2
17:23 36.3 °F 33.1 °F 29.9 in NNW 2.9 mph 11 mph 88% 0 in 0 W/m2
17:33 36.3 °F 33.4 °F 29.9 in West 10.1 mph 11 mph 89% 0 in 0 W/m2
17:38 36.3 °F 33.4 °F 29.9 in WSW 6.9 mph 12 mph 89% 0 in 0 W/m2
17:43 36.3 °F 33.4 °F 29.9 in WNW 4.9 mph 8 mph 89% 0 in 0 W/m2
17:48 36.3 °F 33.4 °F 29.9 in West 8.1 mph 9 mph 89% 0 in 0 W/m2
17:53 36.3 °F 33.4 °F 29.9 in WNW 8.9 mph 10 mph 89% 0 in 0 W/m2
17:58 36.3 °F 33.6 °F 29.9 in West 8.1 mph 15 mph 90% 0 in 0 W/m2
18:03 36.5 °F 33.8 °F 29.9 in West 6.9 mph 11 mph 90% 0 in 0 W/m2
18:08 36.5 °F 33.8 °F 29.9 in West 6.9 mph 15 mph 90% 0 in 0 W/m2
18:13 36.7 °F 34 °F 29.9 in WSW 4.9 mph 11 mph 90% 0 in 0 W/m2
18:19 36.7 °F 34 °F 29.9 in WSW 4.9 mph 14 mph 90% 0 in 0 W/m2
18:24 36.7 °F 34 °F 29.9 in WSW 4 mph 9 mph 90% 0 in 0 W/m2
18:29 36.9 °F 34.2 °F 29.9 in SW 8.1 mph 11 mph 90% 0 in 0 W/m2
18:34 36.9 °F 34.2 °F 29.9 in West 8.1 mph 12 mph 90% 0 in 0 W/m2
18:39 36.9 °F 34.2 °F 29.9 in West 2 mph 9 mph 90% 0 in 0 W/m2
18:44 36.9 °F 34.2 °F 30 in WNW 8.9 mph 15 mph 90% 0 in 0 W/m2
18:49 37 °F 34.3 °F 30 in West 8.1 mph 9 mph 90% 0 in 0 W/m2
18:54 37 °F 34.3 °F 30 in SW 2.9 mph 11 mph 90% 0 in 0 W/m2
18:59 37 °F 34.3 °F 30 in West 4 mph 11 mph 90% 0 in 0 W/m2
19:04 37 °F 34.3 °F 30 in WNW 4 mph 16 mph 90% 0 in 0 W/m2
19:09 37 °F 34.3 °F 30 in West 8.1 mph 10 mph 90% 0 in 0 W/m2
19:14 37 °F 34.3 °F 30 in WNW 4.9 mph 9 mph 90% 0 in 0 W/m2
19:19 37 °F 34.3 °F 30 in WNW 6 mph 12 mph 90% 0 in 0 W/m2
19:24 37.2 °F 34.5 °F 30 in West 4 mph 14 mph 90% 0 in 0 W/m2
19:29 37.2 °F 34.5 °F 30 in West 4 mph 16 mph 90% 0 in 0 W/m2
19:34 37.2 °F 34.3 °F 30 in WSW 8.9 mph 11 mph 89% 0 in 0 W/m2
19:39 37 °F 34.3 °F 30 in WNW 8.1 mph 10 mph 90% 0 in 0 W/m2
19:44 37 °F 34.3 °F 30 in West 10.1 mph 16 mph 90% 0 in 0 W/m2
19:49 36.9 °F 34.2 °F 30 in WNW 4.9 mph 9 mph 90% 0 in 0 W/m2
19:54 36.9 °F 34.2 °F 30 in West 4 mph 16 mph 90% 0 in 0 W/m2
19:59 36.9 °F 34.2 °F 30 in WNW 8.1 mph 11 mph 90% 0 in 0 W/m2
20:04 36.9 °F 34.2 °F 30 in WNW 4 mph 11 mph 90% 0 in 0 W/m2
20:09 36.7 °F 34 °F 30 in WNW 8.1 mph 12 mph 90% 0 in 0 W/m2
20:14 36.7 °F 34 °F 30 in West 4 mph 10 mph 90% 0 in 0 W/m2
20:19 36.7 °F 34 °F 30 in WNW 8.1 mph 12 mph 90% 0 in 0 W/m2
20:24 36.7 °F 34 °F 30 in West 6.9 mph 10 mph 90% 0 in 0 W/m2
20:29 36.7 °F 34 °F 30 in SSW 8.1 mph 11 mph 90% 0 in 0 W/m2
20:34 36.5 °F 34.2 °F 30 in WNW 4.9 mph 9 mph 91% 0 in 0 W/m2
20:39 36.5 °F 34.2 °F 30 in WNW 6.9 mph 11 mph 91% 0 in 0 W/m2
20:44 36.5 °F 34.2 °F 30 in WNW 6.9 mph 11 mph 91% 0 in 0 W/m2
20:49 36.5 °F 34.2 °F 30 in West 8.1 mph 13 mph 91% 0 in 0 W/m2
20:54 36.7 °F 34.3 °F 30 in West 8.9 mph 12 mph 91% 0 in 0 W/m2
20:59 36.7 °F 34.3 °F 30 in West 12.1 mph 12 mph 91% 0 in 0 W/m2
21:04 36.9 °F 34.5 °F 30 in West 6.9 mph 10 mph 91% 0 in 0 W/m2
21:09 36.9 °F 34.5 °F 30 in WSW 4 mph 12 mph 91% 0 in 0 W/m2
21:14 37 °F 34.7 °F 30 in West 6.9 mph 12 mph 91% 0 in 0 W/m2
21:24 37 °F 34.7 °F 30 in WSW 8.9 mph 10 mph 91% 0 in 0 W/m2
21:29 37 °F 34.7 °F 30 in WSW 8.9 mph 13 mph 91% 0 in 0 W/m2
21:34 37.2 °F 34.5 °F 30 in WSW 6.9 mph 7 mph 90% 0 in 0 W/m2
21:39 37.2 °F 34.5 °F 30 in West 2 mph 13 mph 90% 0 in 0 W/m2
21:44 37.2 °F 34.5 °F 30 in West 4 mph 10 mph 90% 0 in 0 W/m2
21:49 37.2 °F 34.5 °F 30 in WNW 4 mph 7 mph 90% 0 in 0 W/m2
21:54 37.2 °F 34.5 °F 30 in WSW 4 mph 10 mph 90% 0 in 0 W/m2
22:04 37.2 °F 34.5 °F 30 in WSW 2 mph 14 mph 90% 0 in 0 W/m2
22:09 37.2 °F 34.5 °F 30 in WSW 8.9 mph 10 mph 90% 0 in 0 W/m2
22:14 37.2 °F 34.5 °F 30 in West 4 mph 12 mph 90% 0 in 0 W/m2
22:19 37.2 °F 34.5 °F 30 in West 2.9 mph 8 mph 90% 0 in 0 W/m2
22:24 37.2 °F 34.3 °F 30 in West 8.1 mph 10 mph 89% 0 in 0 W/m2
22:29 37.4 °F 34.5 °F 30 in WNW 2.9 mph 8 mph 89% 0 in 0 W/m2
22:34 37.4 °F 34.5 °F 30 in West 8.1 mph 9 mph 89% 0 in 0 W/m2
22:39 37.4 °F 34.5 °F 30 in West 6 mph 6 mph 89% 0 in 0 W/m2
22:44 37.6 °F 34.7 °F 30 in West 6 mph 9 mph 89% 0 in 0 W/m2
22:49 37.4 °F 34.5 °F 30 in West 2.9 mph 5 mph 89% 0 in 0 W/m2
22:54 37.4 °F 34.5 °F 30 in West 4 mph 12 mph 89% 0 in 0 W/m2
22:59 37.4 °F 34.5 °F 30 in West 6 mph 7 mph 89% 0 in 0 W/m2
23:04 37.4 °F 34.5 °F 30 in West 0.9 mph 9 mph 89% 0 in 0 W/m2
23:09 37.4 °F 34.5 °F 30 in WSW 4 mph 11 mph 89% 0 in 0 W/m2
23:14 37.2 °F 34.5 °F 30 in West 2.9 mph 12 mph 90% 0 in 0 W/m2
23:19 37.2 °F 34.5 °F 30 in WSW 2.9 mph 12 mph 90% 0 in 0 W/m2
23:24 37.2 °F 34.5 °F 30 in WNW 6.9 mph 9 mph 90% 0 in 0 W/m2
23:29 37 °F 34.3 °F 30 in West 4 mph 12 mph 90% 0 in 0 W/m2
23:34 37 °F 34.3 °F 30 in WNW 2.9 mph 7 mph 90% 0 in 0 W/m2
23:39 37 °F 34.3 °F 30 in NW 2.9 mph 9 mph 90% 0 in 0 W/m2
23:44 37 °F 34.7 °F 30 in WNW 2.9 mph 12 mph 91% 0 in 0 W/m2
23:49 36.9 °F 34.2 °F 30 in WSW 2.9 mph 4 mph 90% 0 in 0 W/m2
23:54 36.9 °F 34.5 °F 30 in West 2.9 mph 10 mph 91% 0 in 0 W/m2
23:59 36.9 °F 34.5 °F 30 in WNW 4 mph 5 mph 91% 0 in 0 W/m2
Juneau County Weather
Compliments of Weather Underground - 4 mb